sensor_id;sensor_type;location;lat;lon;timestamp;pressure;altitude;pressure_sealevel;temperature;humidity
55187;BME280;55457;52.002;5.464;2022-11-20T00:00:49;101142.78;;;20.51;40.10
55187;BME280;55457;52.002;5.464;2022-11-20T00:03:15;101147.38;;;20.50;40.21
55187;BME280;55457;52.002;5.464;2022-11-20T00:05:40;101144.66;;;20.50;40.10
55187;BME280;55457;52.002;5.464;2022-11-20T00:08:05;101140.06;;;20.51;39.97
55187;BME280;55457;52.002;5.464;2022-11-20T00:10:31;101141.38;;;20.48;40.04
55187;BME280;55457;52.002;5.464;2022-11-20T00:12:59;101146.56;;;20.50;40.22
55187;BME280;55457;52.002;5.464;2022-11-20T00:15:24;101140.31;;;20.49;39.95
55187;BME280;55457;52.002;5.464;2022-11-20T00:17:50;101142.22;;;20.49;39.97
55187;BME280;55457;52.002;5.464;2022-11-20T00:20:15;101147.88;;;20.47;40.11
55187;BME280;55457;52.002;5.464;2022-11-20T00:22:41;101148.69;;;20.48;40.19
55187;BME280;55457;52.002;5.464;2022-11-20T00:25:06;101140.56;;;20.48;39.91
55187;BME280;55457;52.002;5.464;2022-11-20T00:27:32;101132.66;;;20.46;39.91
55187;BME280;55457;52.002;5.464;2022-11-20T00:29:57;101138.06;;;20.46;39.84
55187;BME280;55457;52.002;5.464;2022-11-20T00:32:23;101138.94;;;20.47;40.10
55187;BME280;55457;52.002;5.464;2022-11-20T00:34:48;101135.38;;;20.46;39.95
55187;BME280;55457;52.002;5.464;2022-11-20T00:37:13;101119.13;;;20.46;39.93
55187;BME280;55457;52.002;5.464;2022-11-20T00:39:38;101121.81;;;20.46;40.24
55187;BME280;55457;52.002;5.464;2022-11-20T00:42:04;101120.97;;;20.46;39.90
55187;BME280;55457;52.002;5.464;2022-11-20T00:44:29;101111.00;;;20.46;40.09
55187;BME280;55457;52.002;5.464;2022-11-20T00:46:54;101108.50;;;20.45;39.86
55187;BME280;55457;52.002;5.464;2022-11-20T00:49:20;101105.78;;;20.45;39.98
55187;BME280;55457;52.002;5.464;2022-11-20T00:51:45;101103.09;;;20.45;39.85
55187;BME280;55457;52.002;5.464;2022-11-20T00:54:10;101107.69;;;20.44;39.94
55187;BME280;55457;52.002;5.464;2022-11-20T00:56:36;101106.03;;;20.43;39.94
55187;BME280;55457;52.002;5.464;2022-11-20T00:59:01;101101.44;;;20.44;39.91
55187;BME280;55457;52.002;5.464;2022-11-20T01:01:27;101093.56;;;20.42;40.04
55187;BME280;55457;52.002;5.464;2022-11-20T01:03:56;101109.81;;;20.42;39.97
55187;BME280;55457;52.002;5.464;2022-11-20T01:08:48;101110.03;;;20.41;40.08
55187;BME280;55457;52.002;5.464;2022-11-20T01:11:16;101113.59;;;20.41;39.89
55187;BME280;55457;52.002;5.464;2022-11-20T01:13:43;101113.59;;;20.41;39.87
55187;BME280;55457;52.002;5.464;2022-11-20T01:16:17;101124.63;;;20.40;39.83
55187;BME280;55457;52.002;5.464;2022-11-20T01:18:46;101128.16;;;20.40;39.73
55187;BME280;55457;52.002;5.464;2022-11-20T01:21:14;101127.34;;;20.40;39.93
55187;BME280;55457;52.002;5.464;2022-11-20T01:23:42;101117.59;;;20.39;40.04
55187;BME280;55457;52.002;5.464;2022-11-20T01:26:13;101108.63;;;20.38;39.93
55187;BME280;55457;52.002;5.464;2022-11-20T01:28:39;101110.28;;;20.39;39.94
55187;BME280;55457;52.002;5.464;2022-11-20T01:31:22;101108.63;;;20.38;39.95
55187;BME280;55457;52.002;5.464;2022-11-20T01:33:50;101107.00;;;20.37;39.82
55187;BME280;55457;52.002;5.464;2022-11-20T01:36:17;101104.88;;;20.39;39.81
55187;BME280;55457;52.002;5.464;2022-11-20T01:38:43;101103.22;;;20.38;39.99
55187;BME280;55457;52.002;5.464;2022-11-20T01:41:10;101100.53;;;20.38;39.94
55187;BME280;55457;52.002;5.464;2022-11-20T01:43:36;101099.94;;;20.36;39.85
55187;BME280;55457;52.002;5.464;2022-11-20T01:46:17;101110.78;;;20.36;39.76
55187;BME280;55457;52.002;5.464;2022-11-20T01:51:59;101107.47;;;20.34;39.67
55187;BME280;55457;52.002;5.464;2022-11-20T01:57:15;101111.81;;;20.35;39.81
55187;BME280;55457;52.002;5.464;2022-11-20T01:59:45;101109.34;;;20.33;39.92
55187;BME280;55457;52.002;5.464;2022-11-20T02:02:12;101104.19;;;20.32;39.85
55187;BME280;55457;52.002;5.464;2022-11-20T02:04:38;101109.34;;;20.33;39.79
55187;BME280;55457;52.002;5.464;2022-11-20T02:07:04;101100.41;;;20.33;39.83
55187;BME280;55457;52.002;5.464;2022-11-20T02:09:30;101094.16;;;20.32;39.73
55187;BME280;55457;52.002;5.464;2022-11-20T02:11:57;101090.03;;;20.30;39.72
55187;BME280;55457;52.002;5.464;2022-11-20T02:14:24;101091.72;;;20.31;39.71
55187;BME280;55457;52.002;5.464;2022-11-20T02:16:50;101087.13;;;20.31;39.61
55187;BME280;55457;52.002;5.464;2022-11-20T02:19:30;101080.03;;;20.30;39.50
55187;BME280;55457;52.002;5.464;2022-11-20T02:22:16;101084.63;;;20.30;39.84
55187;BME280;55457;52.002;5.464;2022-11-20T02:24:44;101079.22;;;20.30;39.86
55187;BME280;55457;52.002;5.464;2022-11-20T02:27:12;101068.38;;;20.30;39.65
55187;BME280;55457;52.002;5.464;2022-11-20T02:29:50;101068.38;;;20.30;39.74
55187;BME280;55457;52.002;5.464;2022-11-20T02:32:31;101068.38;;;20.30;39.57
55187;BME280;55457;52.002;5.464;2022-11-20T02:34:57;101071.34;;;20.28;39.72
55187;BME280;55457;52.002;5.464;2022-11-20T02:37:27;101068.38;;;20.30;39.66
55187;BME280;55457;52.002;5.464;2022-11-20T02:39:55;101067.00;;;20.27;39.63
55187;BME280;55457;52.002;5.464;2022-11-20T02:42:21;101072.16;;;20.29;39.80
55187;BME280;55457;52.002;5.464;2022-11-20T02:44:46;101073.81;;;20.30;39.52
55187;BME280;55457;52.002;5.464;2022-11-20T02:47:12;101077.56;;;20.29;39.79
55187;BME280;55457;52.002;5.464;2022-11-20T02:49:37;101082.16;;;20.28;39.77
55187;BME280;55457;52.002;5.464;2022-11-20T02:52:02;101089.22;;;20.29;39.63
55187;BME280;55457;52.002;5.464;2022-11-20T02:54:28;101085.69;;;20.29;39.68
55187;BME280;55457;52.002;5.464;2022-11-20T02:56:53;101081.91;;;20.30;39.59
55187;BME280;55457;52.002;5.464;2022-11-20T02:59:18;101079.22;;;20.30;39.76
55187;BME280;55457;52.002;5.464;2022-11-20T03:01:44;101078.38;;;20.29;39.69
55187;BME280;55457;52.002;5.464;2022-11-20T03:04:09;101080.28;;;20.29;39.75
55187;BME280;55457;52.002;5.464;2022-11-20T03:06:34;101073.81;;;20.30;39.56
55187;BME280;55457;52.002;5.464;2022-11-20T03:09:00;101066.75;;;20.29;39.73
55187;BME280;55457;52.002;5.464;2022-11-20T03:11:25;101066.75;;;20.29;39.83
55187;BME280;55457;52.002;5.464;2022-11-20T03:13:50;101068.38;;;20.30;39.56
55187;BME280;55457;52.002;5.464;2022-11-20T03:16:18;101058.38;;;20.30;39.58
55187;BME280;55457;52.002;5.464;2022-11-20T03:18:45;101053.81;;;20.31;39.43
55187;BME280;55457;52.002;5.464;2022-11-20T03:21:12;101055.47;;;20.32;39.44
55187;BME280;55457;52.002;5.464;2022-11-20T03:23:38;101050.03;;;20.32;39.64
55187;BME280;55457;52.002;5.464;2022-11-20T03:26:15;101050.03;;;20.32;39.55
55187;BME280;55457;52.002;5.464;2022-11-20T03:28:46;101051.69;;;20.33;39.65
55187;BME280;55457;52.002;5.464;2022-11-20T03:31:14;101047.91;;;20.34;39.56
55187;BME280;55457;52.002;5.464;2022-11-20T03:33:40;101050.63;;;20.34;39.55
55187;BME280;55457;52.002;5.464;2022-11-20T03:36:08;101054.97;;;20.35;39.49
55187;BME280;55457;52.002;5.464;2022-11-20T03:38:34;101046.84;;;20.35;39.50
55187;BME280;55457;52.002;5.464;2022-11-20T03:41:02;101050.38;;;20.36;39.60
55187;BME280;55457;52.002;5.464;2022-11-20T03:43:28;101046.63;;;20.37;39.54
55187;BME280;55457;52.002;5.464;2022-11-20T03:45:54;101042.03;;;20.37;39.48
55187;BME280;55457;52.002;5.464;2022-11-20T03:48:19;101044.75;;;20.37;39.34
55187;BME280;55457;52.002;5.464;2022-11-20T03:50:44;101044.50;;;20.39;39.47
55187;BME280;55457;52.002;5.464;2022-11-20T03:53:12;101025.78;;;20.37;39.45
55187;BME280;55457;52.002;5.464;2022-11-20T03:55:38;101028.25;;;20.39;39.37
55187;BME280;55457;52.002;5.464;2022-11-20T03:58:03;101024.47;;;20.40;39.40
55187;BME280;55457;52.002;5.464;2022-11-20T04:00:29;101021.56;;;20.41;39.38
55187;BME280;55457;52.002;5.464;2022-11-20T04:02:57;101025.09;;;20.42;39.25
55187;BME280;55457;52.002;5.464;2022-11-20T04:05:23;101027.53;;;20.43;39.44
55187;BME280;55457;52.002;5.464;2022-11-20T04:07:48;101019.41;;;20.43;39.29
55187;BME280;55457;52.002;5.464;2022-11-20T04:10:14;101022.69;;;20.45;39.54
55187;BME280;55457;52.002;5.464;2022-11-20T04:12:39;101023.50;;;20.46;39.23
55187;BME280;55457;52.002;5.464;2022-11-20T04:15:05;101024.38;;;20.46;39.20
55187;BME280;55457;52.002;5.464;2022-11-20T04:17:30;101014.13;;;20.48;39.04
55187;BME280;55457;52.002;5.464;2022-11-20T04:19:55;101006.00;;;20.48;39.18
55187;BME280;55457;52.002;5.464;2022-11-20T04:22:21;101009.28;;;20.50;39.18
55187;BME280;55457;52.002;5.464;2022-11-20T04:24:46;101012.59;;;20.52;39.21
55187;BME280;55457;52.002;5.464;2022-11-20T04:27:11;101013.41;;;20.53;38.99
55187;BME280;55457;52.002;5.464;2022-11-20T04:29:37;101009.66;;;20.54;39.23
55187;BME280;55457;52.002;5.464;2022-11-20T04:32:02;101001.28;;;20.55;38.96
55187;BME280;55457;52.002;5.464;2022-11-20T04:34:27;100996.69;;;20.56;38.66
55187;BME280;55457;52.002;5.464;2022-11-20T04:36:53;100996.47;;;20.57;38.88
55187;BME280;55457;52.002;5.464;2022-11-20T04:39:18;100991.03;;;20.57;38.91
55187;BME280;55457;52.002;5.464;2022-11-20T04:41:43;100994.56;;;20.58;39.04
55187;BME280;55457;52.002;5.464;2022-11-20T04:44:09;100989.97;;;20.58;38.86
55187;BME280;55457;52.002;5.464;2022-11-20T04:46:36;100998.66;;;20.61;38.87
55187;BME280;55457;52.002;5.464;2022-11-20T04:49:02;101002.44;;;20.59;38.93
55187;BME280;55457;52.002;5.464;2022-11-20T04:51:28;101001.38;;;20.61;38.89
55187;BME280;55457;52.002;5.464;2022-11-20T04:53:53;100998.66;;;20.61;38.86
55187;BME280;55457;52.002;5.464;2022-11-20T04:56:19;101000.31;;;20.62;39.04
55187;BME280;55457;52.002;5.464;2022-11-20T04:58:44;100989.47;;;20.62;38.65
55187;BME280;55457;52.002;5.464;2022-11-20T05:01:13;100985.72;;;20.63;38.80
55187;BME280;55457;52.002;5.464;2022-11-20T05:03:39;100980.31;;;20.63;38.86
55187;BME280;55457;52.002;5.464;2022-11-20T05:06:06;100974.91;;;20.63;38.90
55187;BME280;55457;52.002;5.464;2022-11-20T05:08:32;100969.47;;;20.63;38.64
55187;BME280;55457;52.002;5.464;2022-11-20T05:11:09;100965.09;;;20.62;38.71
55187;BME280;55457;52.002;5.464;2022-11-20T05:13:35;100962.41;;;20.62;38.65
55187;BME280;55457;52.002;5.464;2022-11-20T05:16:12;100962.41;;;20.62;38.67
55187;BME280;55457;52.002;5.464;2022-11-20T05:18:38;100964.06;;;20.63;38.79
55187;BME280;55457;52.002;5.464;2022-11-20T05:21:04;100965.97;;;20.62;38.80
55187;BME280;55457;52.002;5.464;2022-11-20T05:23:31;100964.06;;;20.63;38.59
55187;BME280;55457;52.002;5.464;2022-11-20T05:25:57;100955.94;;;20.63;38.64
55187;BME280;55457;52.002;5.464;2022-11-20T05:28:23;100955.94;;;20.63;38.66
55187;BME280;55457;52.002;5.464;2022-11-20T05:30:49;100951.56;;;20.62;38.73
55187;BME280;55457;52.002;5.464;2022-11-20T05:33:15;100954.06;;;20.63;38.80
55187;BME280;55457;52.002;5.464;2022-11-20T05:35:40;100956.97;;;20.62;38.75
55187;BME280;55457;52.002;5.464;2022-11-20T05:38:06;100959.69;;;20.62;38.82
55187;BME280;55457;52.002;5.464;2022-11-20T05:40:31;100952.63;;;20.61;38.57
55187;BME280;55457;52.002;5.464;2022-11-20T05:42:57;100956.16;;;20.61;38.73
55187;BME280;55457;52.002;5.464;2022-11-20T05:45:22;100956.97;;;20.62;38.68
55187;BME280;55457;52.002;5.464;2022-11-20T05:47:47;100956.16;;;20.61;38.82
55187;BME280;55457;52.002;5.464;2022-11-20T05:50:14;100959.69;;;20.62;38.45
55187;BME280;55457;52.002;5.464;2022-11-20T05:52:40;100966.16;;;20.61;38.65
55187;BME280;55457;52.002;5.464;2022-11-20T05:55:06;100966.16;;;20.61;38.66
55187;BME280;55457;52.002;5.464;2022-11-20T05:57:31;100971.59;;;20.61;38.71
55187;BME280;55457;52.002;5.464;2022-11-20T05:59:57;100988.66;;;20.61;38.57
55187;BME280;55457;52.002;5.464;2022-11-20T06:02:22;100986.19;;;20.59;38.50
55187;BME280;55457;52.002;5.464;2022-11-20T06:04:48;100995.38;;;20.58;38.62
55187;BME280;55457;52.002;5.464;2022-11-20T06:07:13;100987.75;;;20.55;38.51
55187;BME280;55457;52.002;5.464;2022-11-20T06:09:39;100997.28;;;20.58;38.43
55187;BME280;55457;52.002;5.464;2022-11-20T06:12:04;100990.78;;;20.59;38.58
55187;BME280;55457;52.002;5.464;2022-11-20T06:14:30;100991.88;;;20.58;38.43
55187;BME280;55457;52.002;5.464;2022-11-20T06:16:55;100994.56;;;20.58;38.41
55187;BME280;55457;52.002;5.464;2022-11-20T06:19:21;100987.53;;;20.57;38.61
55187;BME280;55457;52.002;5.464;2022-11-20T06:21:47;100988.34;;;20.57;38.54
55187;BME280;55457;52.002;5.464;2022-11-20T06:24:13;100989.38;;;20.56;38.63
55187;BME280;55457;52.002;5.464;2022-11-20T06:26:38;100982.91;;;20.57;38.32
55187;BME280;55457;52.002;5.464;2022-11-20T06:29:04;100986.66;;;20.56;38.59
55187;BME280;55457;52.002;5.464;2022-11-20T06:31:29;100983.13;;;20.56;38.57
55187;BME280;55457;52.002;5.464;2022-11-20T06:33:55;100983.13;;;20.56;38.48
55187;BME280;55457;52.002;5.464;2022-11-20T06:36:21;100980.44;;;20.56;38.53
55187;BME280;55457;52.002;5.464;2022-11-20T06:38:47;100986.09;;;20.54;38.39
55187;BME280;55457;52.002;5.464;2022-11-20T06:41:16;100989.63;;;20.55;38.54
55187;BME280;55457;52.002;5.464;2022-11-20T06:43:42;100986.09;;;20.54;38.54
55187;BME280;55457;52.002;5.464;2022-11-20T06:46:09;100986.34;;;20.53;38.25
55187;BME280;55457;52.002;5.464;2022-11-20T06:48:35;100982.56;;;20.54;38.01
55187;BME280;55457;52.002;5.464;2022-11-20T06:51:03;100987.16;;;20.53;38.40
55187;BME280;55457;52.002;5.464;2022-11-20T06:53:28;100980.13;;;20.52;38.39
55187;BME280;55457;52.002;5.464;2022-11-20T06:55:55;100977.41;;;20.52;38.42
55187;BME280;55457;52.002;5.464;2022-11-20T06:58:21;100969.28;;;20.52;38.34
55187;BME280;55457;52.002;5.464;2022-11-20T07:00:46;100966.56;;;20.52;38.51
55187;BME280;55457;52.002;5.464;2022-11-20T07:03:12;100965.75;;;20.52;38.41
55187;BME280;55457;52.002;5.464;2022-11-20T07:05:38;100962.19;;;20.51;38.48
55187;BME280;55457;52.002;5.464;2022-11-20T07:08:04;100955.16;;;20.50;38.41
55187;BME280;55457;52.002;5.464;2022-11-20T07:10:29;100957.84;;;20.50;38.46
55187;BME280;55457;52.002;5.464;2022-11-20T07:12:55;100959.50;;;20.51;38.30
55187;BME280;55457;52.002;5.464;2022-11-20T07:15:22;100957.63;;;20.52;38.29
55187;BME280;55457;52.002;5.464;2022-11-20T07:17:48;100958.09;;;20.49;38.54
55187;BME280;55457;52.002;5.464;2022-11-20T07:20:14;100961.63;;;20.49;38.50
55187;BME280;55457;52.002;5.464;2022-11-20T07:22:39;100955.16;;;20.50;38.41
55187;BME280;55457;52.002;5.464;2022-11-20T07:25:06;100960.56;;;20.50;38.41
55187;BME280;55457;52.002;5.464;2022-11-20T07:27:31;100942.69;;;20.49;38.29
55187;BME280;55457;52.002;5.464;2022-11-20T07:29:57;100950.81;;;20.49;38.24
55187;BME280;55457;52.002;5.464;2022-11-20T07:32:23;100948.09;;;20.49;38.42
55187;BME280;55457;52.002;5.464;2022-11-20T07:34:48;100950.81;;;20.49;38.42
55187;BME280;55457;52.002;5.464;2022-11-20T07:37:14;100947.28;;;20.49;38.49
55187;BME280;55457;52.002;5.464;2022-11-20T07:39:39;100957.28;;;20.48;38.38
55187;BME280;55457;52.002;5.464;2022-11-20T07:42:06;100955.66;;;20.47;38.37
55187;BME280;55457;52.002;5.464;2022-11-20T07:44:31;100949.16;;;20.48;38.80
55187;BME280;55457;52.002;5.464;2022-11-20T07:46:57;100948.34;;;20.48;38.47
55187;BME280;55457;52.002;5.464;2022-11-20T07:49:22;100955.41;;;20.49;38.32
55187;BME280;55457;52.002;5.464;2022-11-20T07:51:50;100967.28;;;20.48;38.50
55187;BME280;55457;52.002;5.464;2022-11-20T07:54:16;100965.41;;;20.48;38.39
55187;BME280;55457;52.002;5.464;2022-11-20T07:56:41;100963.53;;;20.49;38.36
55187;BME280;55457;52.002;5.464;2022-11-20T07:59:06;100961.06;;;20.47;38.32
55187;BME280;55457;52.002;5.464;2022-11-20T08:01:32;100962.69;;;20.48;38.16
55187;BME280;55457;52.002;5.464;2022-11-20T08:03:57;100948.09;;;20.49;38.43
55187;BME280;55457;52.002;5.464;2022-11-20T08:06:22;100951.88;;;20.48;38.37
55187;BME280;55457;52.002;5.464;2022-11-20T08:08:49;100941.03;;;20.48;38.42
55187;BME280;55457;52.002;5.464;2022-11-20T08:11:15;100938.59;;;20.47;38.05
55187;BME280;55457;52.002;5.464;2022-11-20T08:13:58;100932.31;;;20.46;38.42
55187;BME280;55457;52.002;5.464;2022-11-20T08:16:39;100939.41;;;20.47;38.44
55187;BME280;55457;52.002;5.464;2022-11-20T08:19:05;100941.28;;;20.47;38.29
55187;BME280;55457;52.002;5.464;2022-11-20T08:21:30;100937.75;;;20.46;38.46
55187;BME280;55457;52.002;5.464;2022-11-20T08:23:57;100942.31;;;20.46;38.31
55187;BME280;55457;52.002;5.464;2022-11-20T08:26:22;100932.31;;;20.46;38.33
55187;BME280;55457;52.002;5.464;2022-11-20T08:28:48;100936.88;;;20.46;38.39
55187;BME280;55457;52.002;5.464;2022-11-20T08:31:14;100943.16;;;20.46;38.30
55187;BME280;55457;52.002;5.464;2022-11-20T08:33:39;100941.47;;;20.45;38.28
55187;BME280;55457;52.002;5.464;2022-11-20T08:36:05;100946.72;;;20.47;38.41
55187;BME280;55457;52.002;5.464;2022-11-20T08:38:31;100950.41;;;20.46;38.50
55187;BME280;55457;52.002;5.464;2022-11-20T08:41:01;100955.84;;;20.46;38.28
55187;BME280;55457;52.002;5.464;2022-11-20T08:43:45;100947.16;;;20.44;38.67
55187;BME280;55457;52.002;5.464;2022-11-20T08:46:10;100946.91;;;20.45;38.86
55187;BME280;55457;52.002;5.464;2022-11-20T08:48:35;100941.47;;;20.45;38.67
55187;BME280;55457;52.002;5.464;2022-11-20T08:51:01;100954.81;;;20.47;38.58
55187;BME280;55457;52.002;5.464;2022-11-20T08:53:27;100947.72;;;20.46;38.83
55187;BME280;55457;52.002;5.464;2022-11-20T08:55:52;100949.59;;;20.45;38.93
55187;BME280;55457;52.002;5.464;2022-11-20T08:58:18;100937.75;;;20.46;39.05
55187;BME280;55457;52.002;5.464;2022-11-20T09:00:43;100938.78;;;20.45;39.00
55187;BME280;55457;52.002;5.464;2022-11-20T09:03:08;100934.19;;;20.46;38.78
55187;BME280;55457;52.002;5.464;2022-11-20T09:05:34;100945.25;;;20.44;38.95
55187;BME280;55457;52.002;5.464;2022-11-20T09:07:59;100936.88;;;20.46;39.17
55187;BME280;55457;52.002;5.464;2022-11-20T09:10:26;100929.63;;;20.46;38.83
55187;BME280;55457;52.002;5.464;2022-11-20T09:12:52;100920.66;;;20.46;39.08
55187;BME280;55457;52.002;5.464;2022-11-20T09:15:17;100920.47;;;20.47;38.71
55187;BME280;55457;52.002;5.464;2022-11-20T09:18:08;100913.97;;;20.48;39.16
55187;BME280;55457;52.002;5.464;2022-11-20T09:20:33;100912.09;;;20.49;38.83
55187;BME280;55457;52.002;5.464;2022-11-20T09:22:58;100905.03;;;20.48;39.22
55187;BME280;55457;52.002;5.464;2022-11-20T09:25:24;100918.56;;;20.48;39.14
55187;BME280;55457;52.002;5.464;2022-11-20T09:27:58;100909.00;;;20.45;38.86
55187;BME280;55457;52.002;5.464;2022-11-20T09:30:24;100910.88;;;20.45;39.20
55187;BME280;55457;52.002;5.464;2022-11-20T09:32:50;100895.97;;;20.42;39.51
55187;BME280;55457;52.002;5.464;2022-11-20T09:35:15;100901.94;;;20.44;39.73
55187;BME280;55457;52.002;5.464;2022-11-20T09:37:41;100890.03;;;20.45;39.93
55187;BME280;55457;52.002;5.464;2022-11-20T09:40:22;100888.78;;;20.48;39.95
55187;BME280;55457;52.002;5.464;2022-11-20T09:43:03;100893.94;;;20.49;40.07
55187;BME280;55457;52.002;5.464;2022-11-20T09:50:57;100884.03;;;20.55;40.12
55187;BME280;55457;52.002;5.464;2022-11-20T09:56:16;100890.34;;;20.61;40.11
55187;BME280;55457;52.002;5.464;2022-11-20T09:58:45;100877.88;;;20.59;40.12
55187;BME280;55457;52.002;5.464;2022-11-20T10:01:16;100876.59;;;20.62;40.13
55187;BME280;55457;52.002;5.464;2022-11-20T10:03:45;100877.41;;;20.63;40.18
55187;BME280;55457;52.002;5.464;2022-11-20T10:06:17;100870.34;;;20.62;39.88
55187;BME280;55457;52.002;5.464;2022-11-20T10:08:54;100872.72;;;20.58;39.85
55187;BME280;55457;52.002;5.464;2022-11-20T10:11:33;100871.09;;;20.57;40.14
55187;BME280;55457;52.002;5.464;2022-11-20T10:25:10;100837.53;;;20.58;40.41
55187;BME280;55457;52.002;5.464;2022-11-20T10:32:38;100826.69;;;20.58;40.38
55187;BME280;55457;52.002;5.464;2022-11-20T10:38:35;100817.50;;;20.59;40.38
55187;BME280;55457;52.002;5.464;2022-11-20T10:41:05;100801.25;;;20.59;40.31
55187;BME280;55457;52.002;5.464;2022-11-20T10:43:53;100791.50;;;20.58;40.19
55187;BME280;55457;52.002;5.464;2022-11-20T10:46:21;100798.28;;;20.61;40.24
55187;BME280;55457;52.002;5.464;2022-11-20T10:48:48;100784.19;;;20.58;40.39
55187;BME280;55457;52.002;5.464;2022-11-20T10:56:53;100763.59;;;20.57;40.29
55187;BME280;55457;52.002;5.464;2022-11-20T11:01:48;100750.56;;;20.54;40.50
55187;BME280;55457;52.002;5.464;2022-11-20T11:07:04;100745.13;;;20.54;40.75
55187;BME280;55457;52.002;5.464;2022-11-20T11:09:38;100738.91;;;20.54;41.15
55187;BME280;55457;52.002;5.464;2022-11-20T11:12:09;100738.09;;;20.53;41.42
55187;BME280;55457;52.002;5.464;2022-11-20T11:14:49;100730.78;;;20.54;41.29
55187;BME280;55457;52.002;5.464;2022-11-20T11:19:56;100712.09;;;20.52;41.53
55187;BME280;55457;52.002;5.464;2022-11-20T11:22:22;100709.38;;;20.52;41.54
55187;BME280;55457;52.002;5.464;2022-11-20T11:24:53;100708.88;;;20.55;41.86
55187;BME280;55457;52.002;5.464;2022-11-20T11:27:19;100714.53;;;20.54;41.78
55187;BME280;55457;52.002;5.464;2022-11-20T11:29:45;100720.22;;;20.52;41.75
55187;BME280;55457;52.002;5.464;2022-11-20T11:32:13;100714.78;;;20.52;41.64
55187;BME280;55457;52.002;5.464;2022-11-20T11:34:39;100691.47;;;20.51;41.82
55187;BME280;55457;52.002;5.464;2022-11-20T11:37:13;100692.31;;;20.52;41.40
55187;BME280;55457;52.002;5.464;2022-11-20T11:39:41;100697.97;;;20.50;41.69
55187;BME280;55457;52.002;5.464;2022-11-20T11:42:11;100694.44;;;20.50;41.36
55187;BME280;55457;52.002;5.464;2022-11-20T11:44:44;100693.63;;;20.49;41.42
55187;BME280;55457;52.002;5.464;2022-11-20T11:47:35;100689.84;;;20.50;41.35
55187;BME280;55457;52.002;5.464;2022-11-20T11:50:02;100670.66;;;20.52;41.30
55187;BME280;55457;52.002;5.464;2022-11-20T11:52:38;100661.47;;;20.53;41.24
55187;BME280;55457;52.002;5.464;2022-11-20T11:55:09;100661.47;;;20.53;41.15
55187;BME280;55457;52.002;5.464;2022-11-20T11:57:49;100663.91;;;20.54;41.29
55187;BME280;55457;52.002;5.464;2022-11-20T12:00:19;100651.44;;;20.53;41.20
55187;BME280;55457;52.002;5.464;2022-11-20T12:10:45;100638.72;;;20.54;41.10
55187;BME280;55457;52.002;5.464;2022-11-20T12:15:53;100636.03;;;20.54;40.96
55187;BME280;55457;52.002;5.464;2022-11-20T12:18:21;100628.97;;;20.53;41.16
55187;BME280;55457;52.002;5.464;2022-11-20T12:25:58;100617.34;;;20.52;40.96
55187;BME280;55457;52.002;5.464;2022-11-20T12:29:02;100604.84;;;20.51;40.92
55187;BME280;55457;52.002;5.464;2022-11-20T12:31:36;100601.31;;;20.51;41.19
55187;BME280;55457;52.002;5.464;2022-11-20T12:36:53;100576.13;;;20.50;40.98
55187;BME280;55457;52.002;5.464;2022-11-20T12:39:42;100572.88;;;20.48;40.98
55187;BME280;55457;52.002;5.464;2022-11-20T12:53:41;100558.09;;;20.39;41.23
55187;BME280;55457;52.002;5.464;2022-11-20T12:56:34;100561.06;;;20.38;41.39
55187;BME280;55457;52.002;5.464;2022-11-20T12:59:23;100552.69;;;20.39;41.28
55187;BME280;55457;52.002;5.464;2022-11-20T13:01:58;100538.06;;;20.40;41.27
55187;BME280;55457;52.002;5.464;2022-11-20T13:06:54;100530.53;;;20.42;41.26
55187;BME280;55457;52.002;5.464;2022-11-20T13:09:20;100531.09;;;20.44;41.24
55187;BME280;55457;52.002;5.464;2022-11-20T13:14:29;100515.44;;;20.46;41.05
55187;BME280;55457;52.002;5.464;2022-11-20T13:19:54;100497.34;;;20.47;40.95
55187;BME280;55457;52.002;5.464;2022-11-20T13:22:28;100513.31;;;20.48;40.83
55187;BME280;55457;52.002;5.464;2022-11-20T13:24:53;100504.13;;;20.49;40.88
55187;BME280;55457;52.002;5.464;2022-11-20T13:27:21;100502.22;;;20.50;40.56
55187;BME280;55457;52.002;5.464;2022-11-20T13:30:14;100484.09;;;20.50;40.76
55187;BME280;55457;52.002;5.464;2022-11-20T13:33:07;100480.31;;;20.51;40.59
55187;BME280;55457;52.002;5.464;2022-11-20T13:35:37;100481.97;;;20.52;40.52
55187;BME280;55457;52.002;5.464;2022-11-20T13:38:10;100482.53;;;20.54;40.47
55187;BME280;55457;52.002;5.464;2022-11-20T13:46:14;100476.03;;;20.55;40.40
55187;BME280;55457;52.002;5.464;2022-11-20T13:48:43;100488.50;;;20.56;40.47
55187;BME280;55457;52.002;5.464;2022-11-20T13:51:15;100473.09;;;20.57;40.35
55187;BME280;55457;52.002;5.464;2022-11-20T13:59:12;100464.97;;;20.57;40.39
55187;BME280;55457;52.002;5.464;2022-11-20T14:01:42;100454.38;;;20.55;40.34
55187;BME280;55457;52.002;5.464;2022-11-20T14:04:15;100427.31;;;20.55;40.36
55187;BME280;55457;52.002;5.464;2022-11-20T14:06:44;100403.75;;;20.56;40.43
55187;BME280;55457;52.002;5.464;2022-11-20T14:09:26;100399.16;;;20.56;40.31
55187;BME280;55457;52.002;5.464;2022-11-20T14:11:51;100418.09;;;20.56;40.39
55187;BME280;55457;52.002;5.464;2022-11-20T14:14:19;100428.13;;;20.56;40.40
55187;BME280;55457;52.002;5.464;2022-11-20T14:16:46;100424.59;;;20.55;40.17
55187;BME280;55457;52.002;5.464;2022-11-20T14:24:13;100397.53;;;20.55;40.29
55187;BME280;55457;52.002;5.464;2022-11-20T14:26:43;100384.53;;;20.52;40.33
55187;BME280;55457;52.002;5.464;2022-11-20T14:29:17;100386.16;;;20.53;40.30
55187;BME280;55457;52.002;5.464;2022-11-20T14:31:45;100388.03;;;20.53;40.38
55187;BME280;55457;52.002;5.464;2022-11-20T14:34:27;100380.16;;;20.51;40.58
55187;BME280;55457;52.002;5.464;2022-11-20T14:37:05;100386.09;;;20.48;40.94
55187;BME280;55457;52.002;5.464;2022-11-20T14:39:41;100373.66;;;20.47;41.20